createdAt,value
2018-08-04T00:00:19.686Z,28.80
2018-08-04T00:00:52.728Z,28.70
2018-08-04T00:01:26.522Z,28.70
2018-08-04T00:02:00.372Z,28.70
2018-08-04T00:02:33.529Z,28.70
2018-08-04T00:03:06.544Z,28.70
2018-08-04T00:03:39.599Z,28.70
2018-08-04T00:04:12.649Z,28.70
2018-08-04T00:04:45.689Z,28.70
2018-08-04T00:05:19.486Z,28.70
2018-08-04T00:05:52.523Z,28.70
2018-08-04T00:06:25.564Z,28.70
2018-08-04T00:06:58.587Z,28.70
2018-08-04T00:07:31.618Z,28.70
2018-08-04T00:08:04.677Z,28.70
2018-08-04T00:08:37.709Z,28.60
2018-08-04T00:09:10.737Z,28.60
2018-08-04T00:09:43.766Z,28.60
2018-08-04T00:10:17.573Z,28.60
2018-08-04T00:10:50.621Z,28.60
2018-08-04T00:11:23.639Z,28.60
2018-08-04T00:11:56.724Z,28.60
2018-08-04T00:12:30.476Z,28.60
2018-08-04T00:13:04.280Z,28.60
2018-08-04T00:13:38.079Z,28.60
2018-08-04T00:14:11.120Z,28.60
2018-08-04T00:14:44.158Z,28.60
2018-08-04T00:15:17.235Z,28.60
2018-08-04T00:15:50.296Z,28.50
2018-08-04T00:16:23.334Z,28.50
2018-08-04T00:16:57.152Z,28.50
2018-08-04T00:17:30.192Z,28.50
2018-08-04T00:18:03.229Z,28.50
2018-08-04T00:18:36.256Z,28.50
2018-08-04T00:19:10.053Z,28.50
2018-08-04T00:19:43.859Z,28.50
2018-08-04T00:20:16.880Z,28.50
2018-08-04T00:20:49.957Z,28.50
2018-08-04T00:21:22.991Z,28.50
2018-08-04T00:21:56.011Z,28.50
2018-08-04T00:22:29.050Z,28.50
2018-08-04T00:23:02.080Z,28.50
2018-08-04T00:23:35.111Z,28.50
2018-08-04T00:24:08.143Z,28.40
2018-08-04T00:24:41.182Z,28.40
2018-08-04T00:25:14.233Z,28.40
2018-08-04T00:25:47.283Z,28.40
2018-08-04T00:26:20.319Z,28.40
2018-08-04T00:26:53.352Z,28.40
2018-08-04T00:27:26.379Z,28.40
2018-08-04T00:27:59.410Z,28.40
2018-08-04T00:28:32.478Z,28.40
2018-08-04T00:29:05.508Z,28.40
2018-08-04T00:29:38.561Z,28.40
2018-08-04T00:30:11.580Z,28.40
2018-08-04T00:30:44.611Z,28.40
2018-08-04T00:31:17.648Z,28.40
2018-08-04T00:31:50.678Z,28.40
2018-08-04T00:32:24.716Z,28.40
2018-08-04T00:32:57.762Z,28.40
2018-08-04T00:33:30.780Z,28.40
2018-08-04T00:34:04.570Z,28.40
2018-08-04T00:34:37.591Z,28.40
2018-08-04T00:35:11.396Z,28.30
2018-08-04T00:35:44.448Z,28.30
2018-08-04T00:36:17.484Z,28.30
2018-08-04T00:36:50.531Z,28.40
2018-08-04T00:37:24.334Z,28.40
2018-08-04T00:37:57.429Z,28.40
2018-08-04T00:38:30.514Z,28.30
2018-08-04T00:39:03.752Z,28.30
2018-08-04T00:39:37.585Z,28.30
2018-08-04T00:40:10.629Z,28.40
2018-08-04T00:40:44.472Z,28.40
2018-08-04T00:41:17.548Z,28.40
2018-08-04T00:41:50.580Z,28.30
2018-08-04T00:42:23.646Z,28.30
2018-08-04T00:42:56.701Z,28.40
2018-08-04T00:43:30.554Z,28.30
2018-08-04T00:44:03.663Z,28.30
2018-08-04T00:44:36.757Z,28.30
2018-08-04T00:45:09.814Z,28.30
2018-08-04T00:45:42.940Z,28.30
2018-08-04T00:46:16.017Z,28.40
2018-08-04T00:46:49.063Z,28.30
2018-08-04T00:47:22.152Z,28.30
2018-08-04T00:47:55.237Z,28.40
2018-08-04T00:48:28.298Z,28.30
2018-08-04T00:49:01.384Z,28.30
2018-08-04T00:49:34.473Z,28.30
2018-08-04T00:50:07.686Z,28.30
2018-08-04T00:50:40.781Z,28.30
2018-08-04T00:51:14.660Z,28.30
2018-08-04T00:51:47.782Z,28.30
2018-08-04T00:52:20.809Z,28.30
2018-08-04T00:52:53.939Z,28.30
2018-08-04T00:53:27.108Z,28.30
2018-08-04T00:54:00.164Z,28.30
2018-08-04T00:54:33.170Z,28.30
2018-08-04T00:55:06.216Z,28.30
2018-08-04T00:55:39.239Z,28.30
2018-08-04T00:56:12.292Z,28.30
2018-08-04T00:56:45.303Z,28.30
2018-08-04T00:57:18.351Z,28.30
2018-08-04T00:57:51.404Z,28.30
2018-08-04T00:58:24.432Z,28.20
2018-08-04T00:58:57.464Z,28.20
2018-08-04T00:59:30.492Z,28.20
2018-08-04T01:00:03.533Z,28.30
2018-08-04T01:00:36.566Z,28.30
2018-08-04T01:01:09.616Z,28.30
2018-08-04T01:01:43.391Z,28.30
2018-08-04T01:02:16.411Z,28.30
2018-08-04T01:02:49.463Z,28.30
2018-08-04T01:03:23.279Z,28.30
2018-08-04T01:03:56.315Z,28.30
2018-08-04T01:04:29.434Z,28.20
2018-08-04T01:05:02.626Z,28.20
2018-08-04T01:05:35.662Z,28.20
2018-08-04T01:06:08.698Z,28.10
2018-08-04T01:06:42.498Z,28.10
2018-08-04T01:07:15.560Z,28.10
2018-08-04T01:07:48.611Z,28.40
2018-08-04T01:08:21.640Z,28.10
2018-08-04T01:08:55.440Z,28.10
2018-08-04T01:09:29.240Z,28.10
2018-08-04T01:10:03.050Z,28.10
2018-08-04T01:10:36.082Z,28.10
2018-08-04T01:11:09.241Z,28.10
2018-08-04T01:11:42.255Z,28.00
2018-08-04T01:12:15.297Z,28.10
2018-08-04T01:12:48.332Z,28.10
2018-08-04T01:13:21.355Z,28.00
2018-08-04T01:13:54.412Z,28.10
2018-08-04T01:14:27.448Z,28.00
2018-08-04T01:15:00.485Z,28.00
2018-08-04T01:15:33.522Z,28.00
2018-08-04T01:16:06.547Z,28.00
2018-08-04T01:16:40.338Z,28.10
2018-08-04T01:17:14.146Z,28.00
2018-08-04T01:17:47.175Z,28.00
2018-08-04T01:18:20.213Z,28.00
2018-08-04T01:18:53.239Z,28.00
2018-08-04T01:19:26.283Z,28.00
2018-08-04T01:19:59.323Z,27.90
2018-08-04T01:20:32.356Z,27.90
2018-08-04T01:21:05.431Z,28.00
2018-08-04T01:21:38.463Z,27.90
2018-08-04T01:22:11.489Z,28.00
2018-08-04T01:22:44.508Z,27.90
2018-08-04T01:23:17.539Z,27.90
2018-08-04T01:23:50.555Z,27.90
2018-08-04T01:24:23.580Z,28.00
2018-08-04T01:24:56.628Z,27.90
2018-08-04T01:25:29.663Z,28.00
2018-08-04T01:26:03.459Z,27.90
2018-08-04T01:26:36.504Z,28.00
2018-08-04T01:27:09.534Z,27.90
2018-08-04T01:27:42.564Z,27.90
2018-08-04T01:28:16.355Z,27.90
2018-08-04T01:28:49.387Z,27.90
2018-08-04T01:29:22.419Z,27.90
2018-08-04T01:29:55.447Z,27.80
2018-08-04T01:30:28.473Z,27.90
2018-08-04T01:31:01.537Z,27.90
2018-08-04T01:31:35.318Z,27.80
2018-08-04T01:32:09.125Z,27.80
2018-08-04T01:32:42.912Z,27.80
2018-08-04T01:33:16.707Z,27.80
2018-08-04T01:33:50.508Z,27.80
2018-08-04T01:34:23.528Z,27.80
2018-08-04T01:34:56.559Z,27.80
2018-08-04T01:35:29.603Z,27.80
2018-08-04T01:36:02.664Z,27.80
2018-08-04T01:36:35.692Z,27.70
2018-08-04T01:37:08.719Z,27.70
2018-08-04T01:37:41.759Z,27.70
2018-08-04T01:38:14.779Z,27.70
2018-08-04T01:38:47.817Z,27.70
2018-08-04T01:39:20.854Z,27.70
2018-08-04T01:39:54.115Z,27.70
2018-08-04T01:40:27.432Z,27.70
2018-08-04T01:41:00.829Z,27.70
2018-08-04T01:41:33.851Z,27.70
2018-08-04T01:42:06.904Z,27.70
2018-08-04T01:42:39.950Z,27.70
2018-08-04T01:43:12.976Z,27.70
2018-08-04T01:43:46.009Z,27.70
2018-08-04T01:44:19.031Z,27.70
2018-08-04T01:44:52.815Z,27.60
2018-08-04T01:45:26.689Z,27.70
2018-08-04T01:45:59.836Z,27.70
2018-08-04T01:46:33.006Z,27.60
2018-08-04T01:47:06.293Z,27.60
2018-08-04T01:47:39.339Z,27.70
2018-08-04T01:48:13.132Z,27.70
2018-08-04T01:48:46.156Z,27.70
2018-08-04T01:49:19.306Z,27.60
2018-08-04T01:49:52.475Z,27.60
2018-08-04T01:50:25.499Z,27.60
2018-08-04T01:50:58.540Z,27.60
2018-08-04T01:51:31.604Z,27.60
2018-08-04T01:52:05.409Z,27.60
2018-08-04T01:52:38.684Z,27.60
2018-08-04T01:53:11.719Z,27.60
2018-08-04T01:53:45.560Z,27.50
2018-08-04T01:54:19.302Z,27.50
2018-08-04T01:54:53.103Z,27.50
2018-08-04T01:55:26.895Z,27.50
2018-08-04T01:56:00.730Z,27.50
2018-08-04T01:56:33.788Z,27.50
2018-08-04T01:57:06.824Z,27.50
2018-08-04T01:57:39.840Z,27.50
2018-08-04T01:58:12.887Z,27.50
2018-08-04T01:58:45.921Z,27.50
2018-08-04T01:59:18.963Z,27.50
2018-08-04T01:59:51.975Z,27.50
2018-08-04T02:00:25.015Z,27.50
2018-08-04T02:00:58.067Z,27.50
2018-08-04T02:01:31.860Z,27.50
2018-08-04T02:02:04.900Z,27.50
2018-08-04T02:02:37.944Z,27.50
2018-08-04T02:03:10.980Z,27.50
2018-08-04T02:03:44.763Z,27.40
2018-08-04T02:04:18.577Z,27.40
2018-08-04T02:04:51.635Z,27.40
2018-08-04T02:05:25.429Z,27.50
2018-08-04T02:05:58.469Z,27.40
2018-08-04T02:06:31.536Z,27.40
2018-08-04T02:07:04.692Z,27.50
2018-08-04T02:07:37.716Z,27.40
2018-08-04T02:08:11.528Z,27.40
2018-08-04T02:08:45.313Z,27.40
2018-08-04T02:09:18.335Z,27.40
2018-08-04T02:09:52.172Z,27.40
2018-08-04T02:10:25.179Z,27.40
2018-08-04T02:10:58.207Z,27.40
2018-08-04T02:11:31.292Z,27.40
2018-08-04T02:12:04.291Z,27.40
2018-08-04T02:12:37.325Z,27.40
2018-08-04T02:13:10.353Z,27.40
2018-08-04T02:13:43.436Z,27.40
2018-08-04T02:14:16.476Z,27.40
2018-08-04T02:14:49.511Z,27.30
2018-08-04T02:15:22.575Z,27.30
2018-08-04T02:15:55.599Z,27.30
2018-08-04T02:16:28.639Z,27.30
2018-08-04T02:17:01.668Z,27.30
2018-08-04T02:17:34.869Z,27.30
2018-08-04T02:18:07.903Z,27.30
2018-08-04T02:18:40.928Z,27.30
2018-08-04T02:19:13.960Z,27.30
2018-08-04T02:19:46.996Z,27.30
2018-08-04T02:20:20.016Z,27.30
2018-08-04T02:20:53.064Z,27.30
2018-08-04T02:21:26.866Z,27.20
2018-08-04T02:22:01.461Z,27.30
2018-08-04T02:22:34.491Z,27.30
2018-08-04T02:23:07.557Z,27.30
2018-08-04T02:23:40.580Z,27.30
2018-08-04T02:24:13.614Z,27.30
2018-08-04T02:24:46.776Z,27.30
2018-08-04T02:25:19.808Z,27.30
2018-08-04T02:25:53.604Z,27.30
2018-08-04T02:26:26.655Z,27.30
2018-08-04T02:26:59.683Z,27.30
2018-08-04T02:27:32.718Z,27.30
2018-08-04T02:28:05.843Z,27.20
2018-08-04T02:28:38.868Z,27.30
2018-08-04T02:29:11.901Z,27.20
2018-08-04T02:29:44.924Z,27.20
2018-08-04T02:30:17.948Z,27.20
2018-08-04T02:30:50.981Z,27.20
2018-08-04T02:31:24.832Z,27.20
2018-08-04T02:31:57.859Z,27.20
2018-08-04T02:32:31.653Z,27.20
2018-08-04T02:33:05.436Z,27.20
2018-08-04T02:33:39.228Z,27.20
2018-08-04T02:34:13.055Z,27.20
2018-08-04T02:34:46.823Z,27.20
2018-08-04T02:35:20.617Z,27.20
2018-08-04T02:35:54.420Z,27.20
2018-08-04T02:36:28.216Z,27.20
2018-08-04T02:37:01.262Z,27.20
2018-08-04T02:37:34.332Z,27.20
2018-08-04T02:38:07.363Z,27.20
2018-08-04T02:38:40.540Z,27.20
2018-08-04T02:39:13.595Z,27.20
2018-08-04T02:39:46.619Z,27.20
2018-08-04T02:40:19.671Z,27.20
2018-08-04T02:40:52.701Z,27.20
2018-08-04T02:41:25.751Z,27.10
2018-08-04T02:41:58.790Z,27.20
2018-08-04T02:42:31.956Z,27.20
2018-08-04T02:43:04.991Z,27.20
2018-08-04T02:43:38.027Z,27.10
2018-08-04T02:44:11.823Z,27.10
2018-08-04T02:44:44.843Z,27.10
2018-08-04T02:45:18.661Z,27.10
2018-08-04T02:45:51.667Z,27.10
2018-08-04T02:46:24.727Z,27.10
2018-08-04T02:46:57.818Z,27.10
2018-08-04T02:47:30.852Z,27.10
2018-08-04T02:48:03.872Z,27.10
2018-08-04T02:48:36.943Z,27.10
2018-08-04T02:49:09.971Z,27.10
2018-08-04T02:49:43.002Z,27.10
2018-08-04T02:50:16.279Z,27.10
2018-08-04T02:50:49.307Z,27.10
2018-08-04T02:51:22.338Z,27.10
2018-08-04T02:51:55.379Z,27.10
2018-08-04T02:52:28.396Z,27.10
2018-08-04T02:53:01.431Z,27.10
2018-08-04T02:53:34.452Z,27.00
2018-08-04T02:54:08.251Z,27.10
2018-08-04T02:54:42.045Z,27.00
2018-08-04T02:55:15.839Z,27.00
2018-08-04T02:55:49.636Z,27.00
2018-08-04T02:56:23.449Z,27.10
2018-08-04T02:56:56.493Z,27.00
2018-08-04T02:57:30.292Z,27.00
2018-08-04T02:58:03.339Z,27.00
2018-08-04T02:58:36.371Z,27.00
2018-08-04T02:59:09.411Z,27.00
2018-08-04T02:59:42.440Z,27.00
2018-08-04T03:00:16.233Z,27.00
2018-08-04T03:00:49.273Z,27.20
2018-08-04T03:01:22.304Z,27.00
2018-08-04T03:01:55.342Z,27.00
2018-08-04T03:02:28.435Z,27.00
2018-08-04T03:03:01.456Z,27.00
2018-08-04T03:03:34.504Z,27.00
2018-08-04T03:04:07.544Z,27.00
2018-08-04T03:04:40.714Z,27.00
2018-08-04T03:05:13.746Z,27.00
2018-08-04T03:05:46.777Z,27.00
2018-08-04T03:06:19.801Z,27.00
2018-08-04T03:06:53.587Z,26.90
2018-08-04T03:07:27.390Z,26.90
2018-08-04T03:08:01.216Z,26.90
2018-08-04T03:08:34.246Z,26.90
2018-08-04T03:09:07.264Z,26.90
2018-08-04T03:09:40.300Z,26.90
2018-08-04T03:10:14.104Z,26.90
2018-08-04T03:10:47.143Z,26.90
2018-08-04T03:11:20.195Z,27.00
2018-08-04T03:11:53.220Z,27.00
2018-08-04T03:12:27.028Z,26.90
2018-08-04T03:13:00.061Z,26.90
2018-08-04T03:13:33.103Z,26.90
2018-08-04T03:14:06.142Z,26.90
2018-08-04T03:14:39.940Z,26.90
2018-08-04T03:15:12.979Z,26.90
2018-08-04T03:15:46.030Z,26.90
2018-08-04T03:16:19.072Z,26.90
2018-08-04T03:16:52.106Z,26.90
2018-08-04T03:17:25.147Z,26.90
2018-08-04T03:17:58.172Z,26.90
2018-08-04T03:18:31.983Z,26.90
2018-08-04T03:19:05.031Z,26.90
2018-08-04T03:19:38.053Z,26.90
2018-08-04T03:20:11.137Z,26.90
2018-08-04T03:20:44.180Z,26.80
2018-08-04T03:21:17.994Z,26.80
2018-08-04T03:21:51.047Z,26.80
2018-08-04T03:22:24.091Z,26.80
2018-08-04T03:22:57.219Z,26.90
2018-08-04T03:23:30.405Z,26.80
2018-08-04T03:24:03.451Z,26.80
2018-08-04T03:24:36.512Z,26.80
2018-08-04T03:25:09.529Z,26.80
2018-08-04T03:25:42.564Z,26.90
2018-08-04T03:26:16.364Z,26.90
2018-08-04T03:26:49.400Z,26.90
2018-08-04T03:27:22.448Z,26.90
2018-08-04T03:27:55.623Z,26.90
2018-08-04T03:28:28.652Z,26.90
2018-08-04T03:29:02.463Z,26.90
2018-08-04T03:29:36.265Z,26.80
2018-08-04T03:30:09.309Z,26.80
2018-08-04T03:30:43.106Z,26.80
2018-08-04T03:31:16.934Z,26.80
2018-08-04T03:31:49.971Z,26.80
2018-08-04T03:32:23.015Z,26.80
2018-08-04T03:32:56.035Z,26.80
2018-08-04T03:33:29.071Z,26.80
2018-08-04T03:34:02.095Z,26.70
2018-08-04T03:34:35.176Z,26.70
2018-08-04T03:35:08.215Z,26.80
2018-08-04T03:35:42.012Z,26.80
2018-08-04T03:36:15.043Z,26.80
2018-08-04T03:36:48.071Z,26.80
2018-08-04T03:37:21.892Z,26.80
2018-08-04T03:37:54.924Z,26.80
2018-08-04T03:38:27.960Z,26.80
2018-08-04T03:39:01.008Z,26.80
2018-08-04T03:39:34.043Z,26.80
2018-08-04T03:40:07.074Z,26.80
2018-08-04T03:40:40.104Z,26.70
2018-08-04T03:41:13.920Z,26.70
2018-08-04T03:41:46.946Z,26.70
2018-08-04T03:42:19.981Z,26.70
2018-08-04T03:42:53.015Z,26.70
2018-08-04T03:43:26.042Z,26.70
2018-08-04T03:43:59.067Z,26.70
2018-08-04T03:44:32.100Z,26.70
2018-08-04T03:45:05.137Z,26.80
2018-08-04T03:45:38.164Z,26.70
2018-08-04T03:46:11.202Z,26.70
2018-08-04T03:46:44.276Z,26.70
2018-08-04T03:47:17.463Z,26.70
2018-08-04T03:47:50.503Z,26.70
2018-08-04T03:48:24.308Z,26.70
2018-08-04T03:48:57.332Z,26.70
2018-08-04T03:49:30.363Z,26.70
2018-08-04T03:50:03.393Z,26.70
2018-08-04T03:50:36.428Z,26.70
2018-08-04T03:51:09.497Z,26.70
2018-08-04T03:51:42.527Z,26.10
2018-08-04T03:52:15.561Z,26.60
2018-08-04T03:52:48.627Z,26.60
2018-08-04T03:53:21.801Z,26.70
2018-08-04T03:53:54.843Z,26.70
2018-08-04T03:54:27.887Z,26.60
2018-08-04T03:55:00.931Z,26.60
2018-08-04T03:55:33.965Z,26.60
2018-08-04T03:56:06.995Z,26.60
2018-08-04T03:56:40.041Z,26.60
2018-08-04T03:57:13.072Z,26.60
2018-08-04T03:57:46.116Z,26.60
2018-08-04T03:58:19.168Z,26.60
2018-08-04T03:58:52.195Z,26.60
2018-08-04T03:59:25.224Z,26.70
2018-08-04T03:59:58.263Z,26.60
2018-08-04T04:00:32.063Z,26.60
2018-08-04T04:01:05.102Z,26.60
2018-08-04T04:01:38.142Z,26.60
2018-08-04T04:02:11.183Z,26.60
2018-08-04T04:02:44.998Z,26.60
2018-08-04T04:03:18.043Z,26.60
2018-08-04T04:03:51.100Z,26.70
2018-08-04T04:04:24.133Z,26.70
2018-08-04T04:04:57.312Z,26.60
2018-08-04T04:05:30.361Z,26.60
2018-08-04T04:06:03.463Z,26.60
2018-08-04T04:06:37.709Z,26.70
2018-08-04T04:07:10.840Z,26.60
2018-08-04T04:07:44.125Z,26.70
2018-08-04T04:08:17.163Z,26.70
2018-08-04T04:08:50.963Z,26.60
2018-08-04T04:09:24.008Z,26.60
2018-08-04T04:09:57.049Z,26.60
2018-08-04T04:10:30.091Z,26.60
2018-08-04T04:11:03.124Z,26.50
2018-08-04T04:11:36.168Z,26.60
2018-08-04T04:12:09.976Z,26.60
2018-08-04T04:12:43.017Z,26.60
2018-08-04T04:13:16.067Z,26.50
2018-08-04T04:13:49.091Z,26.50
2018-08-04T04:14:22.133Z,26.50
2018-08-04T04:14:55.171Z,26.50
2018-08-04T04:15:28.215Z,26.50
2018-08-04T04:16:01.257Z,26.50
2018-08-04T04:16:34.298Z,26.50
2018-08-04T04:17:07.326Z,26.50
2018-08-04T04:17:40.352Z,26.50
2018-08-04T04:18:14.175Z,26.50
2018-08-04T04:18:47.203Z,26.50
2018-08-04T04:19:20.246Z,26.50
2018-08-04T04:19:53.275Z,26.50
2018-08-04T04:20:27.089Z,26.50
2018-08-04T04:21:00.144Z,26.50
2018-08-04T04:21:33.980Z,26.50
2018-08-04T04:22:07.039Z,26.50
2018-08-04T04:22:40.095Z,26.50
2018-08-04T04:23:13.144Z,26.50
2018-08-04T04:23:46.180Z,26.50
2018-08-04T04:24:19.216Z,26.50
2018-08-04T04:24:52.254Z,26.50
2018-08-04T04:25:25.284Z,26.40
2018-08-04T04:25:58.330Z,26.40
2018-08-04T04:26:31.390Z,26.40
2018-08-04T04:27:04.528Z,26.50
2018-08-04T04:27:37.569Z,26.50
2018-08-04T04:28:11.372Z,26.50
2018-08-04T04:28:44.399Z,26.50
2018-08-04T04:29:17.440Z,26.50
2018-08-04T04:29:50.741Z,26.50
2018-08-04T04:30:23.775Z,26.40
2018-08-04T04:30:56.819Z,26.40
2018-08-04T04:31:29.850Z,26.40
2018-08-04T04:32:02.885Z,26.40
2018-08-04T04:32:35.929Z,26.50
2018-08-04T04:33:09.118Z,26.40
2018-08-04T04:33:42.158Z,26.40
2018-08-04T04:34:15.203Z,26.40
2018-08-04T04:34:48.239Z,26.50
2018-08-04T04:35:21.269Z,26.50
2018-08-04T04:35:54.525Z,26.50
2018-08-04T04:36:27.568Z,26.50
2018-08-04T04:37:00.975Z,26.50
2018-08-04T04:37:33.925Z,26.50
2018-08-04T04:38:06.952Z,26.50
2018-08-04T04:38:40.014Z,26.60
2018-08-04T04:39:13.047Z,26.50
2018-08-04T04:39:46.086Z,26.50
2018-08-04T04:40:19.113Z,26.50
2018-08-04T04:40:52.911Z,26.50
2018-08-04T04:41:25.983Z,26.50
2018-08-04T04:41:58.998Z,26.50
2018-08-04T04:42:32.043Z,26.50
2018-08-04T04:43:05.141Z,26.50
2018-08-04T04:43:38.206Z,26.50
2018-08-04T04:44:11.253Z,26.50
2018-08-04T04:44:45.060Z,26.60
2018-08-04T04:45:18.095Z,26.50
2018-08-04T04:45:51.135Z,26.60
2018-08-04T04:46:24.188Z,26.60
2018-08-04T04:46:57.232Z,26.60
2018-08-04T04:47:30.269Z,26.60
2018-08-04T04:48:03.299Z,26.60
2018-08-04T04:48:36.539Z,26.60
2018-08-04T04:49:09.463Z,26.60
2018-08-04T04:49:42.527Z,26.60
2018-08-04T04:50:16.365Z,26.60
2018-08-04T04:50:49.541Z,26.60
2018-08-04T04:51:22.581Z,26.60
2018-08-04T04:51:56.597Z,26.60
2018-08-04T04:52:29.876Z,26.60
2018-08-04T04:53:02.996Z,26.60
2018-08-04T04:53:36.037Z,26.60
2018-08-04T04:54:09.096Z,26.60
2018-08-04T04:54:42.120Z,26.60
2018-08-04T04:55:15.162Z,26.60
2018-08-04T04:55:48.191Z,26.60
2018-08-04T04:56:21.992Z,26.60
2018-08-04T04:56:55.043Z,26.60
2018-08-04T04:57:28.073Z,26.60
2018-08-04T04:58:01.260Z,26.60
2018-08-04T04:58:34.464Z,26.60
2018-08-04T04:59:07.619Z,26.60
2018-08-04T04:59:40.679Z,26.60
2018-08-04T05:00:13.721Z,26.60
2018-08-04T05:00:47.512Z,26.60
2018-08-04T05:01:21.303Z,26.60
2018-08-04T05:01:55.155Z,26.60
2018-08-04T05:02:28.928Z,26.60
2018-08-04T05:03:01.967Z,26.60
2018-08-04T05:03:35.095Z,26.70
2018-08-04T05:04:08.137Z,26.60
2018-08-04T05:04:41.239Z,26.70
2018-08-04T05:05:14.427Z,26.70
2018-08-04T05:05:47.598Z,26.70
2018-08-04T05:06:20.637Z,26.70
2018-08-04T05:06:53.680Z,26.70
2018-08-04T05:07:26.723Z,26.70
2018-08-04T05:07:59.776Z,26.70
2018-08-04T05:08:32.837Z,26.70
2018-08-04T05:09:06.638Z,26.70
2018-08-04T05:09:39.671Z,26.70
2018-08-04T05:10:12.712Z,26.70
2018-08-04T05:10:45.743Z,26.70
2018-08-04T05:11:19.556Z,26.80
2018-08-04T05:11:52.596Z,26.80
2018-08-04T05:12:25.633Z,26.80
2018-08-04T05:12:58.676Z,26.80
2018-08-04T05:13:31.713Z,26.80
2018-08-04T05:14:04.760Z,26.80
2018-08-04T05:14:37.798Z,26.80
2018-08-04T05:15:10.828Z,26.80
2018-08-04T05:15:43.875Z,26.80
2018-08-04T05:16:16.915Z,26.80
2018-08-04T05:16:49.960Z,26.80
2018-08-04T05:17:23.011Z,26.80
2018-08-04T05:17:56.052Z,26.80
2018-08-04T05:18:29.092Z,26.80
2018-08-04T05:19:02.142Z,26.80
2018-08-04T05:19:35.190Z,26.70
2018-08-04T05:20:08.235Z,26.80
2018-08-04T05:20:42.040Z,26.80
2018-08-04T05:21:15.072Z,26.80
2018-08-04T05:21:48.111Z,26.80
2018-08-04T05:22:21.892Z,26.80
2018-08-04T05:22:54.935Z,26.80
2018-08-04T05:23:27.986Z,26.80
2018-08-04T05:24:01.032Z,26.80
2018-08-04T05:24:34.076Z,26.90
2018-08-04T05:25:07.120Z,26.90
2018-08-04T05:25:40.150Z,26.90
2018-08-04T05:26:13.198Z,26.90
2018-08-04T05:26:46.247Z,26.90
2018-08-04T05:27:19.271Z,26.90
2018-08-04T05:27:52.320Z,26.90
2018-08-04T05:28:26.130Z,26.90
2018-08-04T05:28:59.198Z,26.90
2018-08-04T05:29:32.491Z,26.90
2018-08-04T05:30:05.568Z,26.90
2018-08-04T05:30:38.602Z,26.90
2018-08-04T05:31:11.649Z,26.90
2018-08-04T05:31:44.709Z,26.90
2018-08-04T05:32:17.893Z,26.90
2018-08-04T05:32:50.947Z,26.90
2018-08-04T05:33:23.980Z,26.90
2018-08-04T05:33:57.778Z,26.90
2018-08-04T05:34:31.592Z,26.90
2018-08-04T05:35:04.653Z,26.90
2018-08-04T05:35:38.699Z,26.90
2018-08-04T05:36:11.737Z,27.00
2018-08-04T05:36:44.779Z,27.00
2018-08-04T05:37:17.853Z,27.00
2018-08-04T05:37:50.852Z,27.00
2018-08-04T05:38:24.662Z,27.00
2018-08-04T05:38:57.686Z,27.00
2018-08-04T05:39:30.835Z,27.00
2018-08-04T05:40:03.865Z,27.00
2018-08-04T05:40:36.977Z,27.00
2018-08-04T05:41:10.066Z,27.00
2018-08-04T05:41:43.091Z,27.00
2018-08-04T05:42:16.907Z,27.00
2018-08-04T05:42:49.939Z,27.00
2018-08-04T05:43:23.015Z,27.00
2018-08-04T05:43:56.006Z,27.10
2018-08-04T05:44:29.822Z,27.10
2018-08-04T05:45:02.851Z,27.10
2018-08-04T05:45:35.883Z,27.10
2018-08-04T05:46:08.927Z,27.10
2018-08-04T05:46:42.753Z,27.20
2018-08-04T05:47:15.755Z,27.20
2018-08-04T05:47:48.809Z,27.20
2018-08-04T05:48:21.873Z,27.20
2018-08-04T05:48:55.176Z,27.20
2018-08-04T05:49:28.202Z,27.20
2018-08-04T05:50:02.052Z,27.20
2018-08-04T05:50:35.041Z,27.20
2018-08-04T05:51:08.080Z,27.20
2018-08-04T05:51:41.112Z,27.30
2018-08-04T05:52:14.927Z,27.30
2018-08-04T05:52:47.957Z,27.30
2018-08-04T05:53:21.004Z,27.30
2018-08-04T05:53:54.047Z,27.30
2018-08-04T05:54:27.088Z,27.30
2018-08-04T05:55:00.150Z,27.30
2018-08-04T05:55:33.206Z,27.40
2018-08-04T05:56:06.270Z,27.40
2018-08-04T05:56:39.319Z,27.40
2018-08-04T05:57:12.368Z,27.40
2018-08-04T05:57:45.408Z,27.40
2018-08-04T05:58:18.460Z,27.40
2018-08-04T05:58:51.647Z,27.40
2018-08-04T05:59:24.703Z,27.50
2018-08-04T05:59:58.388Z,27.50
2018-08-04T06:00:31.426Z,27.40
2018-08-04T06:01:04.552Z,27.50
2018-08-04T06:01:37.757Z,27.50
2018-08-04T06:02:10.772Z,27.50
2018-08-04T06:02:44.700Z,27.60
2018-08-04T06:03:17.755Z,27.20
2018-08-04T06:03:50.796Z,27.50
2018-08-04T06:04:23.847Z,27.50
2018-08-04T06:04:56.889Z,27.60
2018-08-04T06:05:29.920Z,27.60
2018-08-04T06:06:02.968Z,27.60
2018-08-04T06:06:36.012Z,27.60
2018-08-04T06:07:09.060Z,27.70
2018-08-04T06:07:42.860Z,27.70
2018-08-04T06:08:16.788Z,27.70
2018-08-04T06:08:49.814Z,27.60
2018-08-04T06:09:22.876Z,27.70
2018-08-04T06:09:55.947Z,27.70
2018-08-04T06:10:28.967Z,27.70
2018-08-04T06:11:02.001Z,27.70
2018-08-04T06:11:35.047Z,27.70
2018-08-04T06:12:08.099Z,27.70
2018-08-04T06:12:41.149Z,27.80
2018-08-04T06:13:14.289Z,27.80
2018-08-04T06:13:47.344Z,27.80
2018-08-04T06:14:20.386Z,27.80
2018-08-04T06:14:54.190Z,27.80
2018-08-04T06:15:27.228Z,27.80
2018-08-04T06:16:00.265Z,27.80
2018-08-04T06:16:33.314Z,27.90
2018-08-04T06:17:06.343Z,27.90
2018-08-04T06:17:39.376Z,27.90
2018-08-04T06:18:12.635Z,27.90
2018-08-04T06:18:45.671Z,28.00
2018-08-04T06:19:19.079Z,28.00
2018-08-04T06:19:52.123Z,28.00
2018-08-04T06:20:25.159Z,28.00
2018-08-04T06:20:58.193Z,28.10
2018-08-04T06:21:31.231Z,28.10
2018-08-04T06:22:04.305Z,28.10
2018-08-04T06:22:37.324Z,28.10
2018-08-04T06:23:10.360Z,28.20
2018-08-04T06:23:43.388Z,28.20
2018-08-04T06:24:17.211Z,28.20
2018-08-04T06:24:50.244Z,28.20
2018-08-04T06:25:24.057Z,28.30
2018-08-04T06:25:57.104Z,28.30
2018-08-04T06:26:30.144Z,28.30
2018-08-04T06:27:03.209Z,28.30
2018-08-04T06:27:36.305Z,28.30
2018-08-04T06:28:09.335Z,28.40
2018-08-04T06:28:42.380Z,28.40
2018-08-04T06:29:16.211Z,28.50
2018-08-04T06:29:49.260Z,28.50
2018-08-04T06:30:23.061Z,28.60
2018-08-04T06:30:56.107Z,28.60
2018-08-04T06:31:29.151Z,28.60
2018-08-04T06:32:02.185Z,28.50
2018-08-04T06:32:35.227Z,28.50
2018-08-04T06:33:08.266Z,28.60
2018-08-04T06:33:41.299Z,28.60
2018-08-04T06:34:15.112Z,28.70
2018-08-04T06:34:48.163Z,28.60
2018-08-04T06:35:21.980Z,28.70
2018-08-04T06:35:55.042Z,28.70
2018-08-04T06:36:28.049Z,28.70
2018-08-04T06:37:01.103Z,28.70
2018-08-04T06:37:34.133Z,28.80
2018-08-04T06:38:07.176Z,28.80
2018-08-04T06:38:40.195Z,28.90
2018-08-04T06:39:14.235Z,29.00
2018-08-04T06:39:47.296Z,29.00
2018-08-04T06:40:20.338Z,29.00
2018-08-04T06:40:53.395Z,29.10
2018-08-04T06:41:26.452Z,29.00
2018-08-04T06:42:00.269Z,29.10
2018-08-04T06:42:33.309Z,29.10
2018-08-04T06:43:06.340Z,29.20
2018-08-04T06:43:39.380Z,29.10
2018-08-04T06:44:12.408Z,29.20
2018-08-04T06:44:45.459Z,29.20
2018-08-04T06:45:18.575Z,29.30
2018-08-04T06:45:51.612Z,29.30
2018-08-04T06:46:24.639Z,29.30
2018-08-04T06:46:57.679Z,29.30
2018-08-04T06:47:31.487Z,29.30
2018-08-04T06:48:04.519Z,29.30
2018-08-04T06:48:37.561Z,29.30
2018-08-04T06:49:10.599Z,29.40
2018-08-04T06:49:43.647Z,29.40
2018-08-04T06:50:16.679Z,29.40
2018-08-04T06:50:49.747Z,29.40
2018-08-04T06:51:22.788Z,29.40
2018-08-04T06:51:56.594Z,29.50
2018-08-04T06:52:29.700Z,29.50
2018-08-04T06:53:02.884Z,29.40
2018-08-04T06:53:35.907Z,29.50
2018-08-04T06:54:08.935Z,29.50
2018-08-04T06:54:41.988Z,29.60
2018-08-04T06:55:15.020Z,29.60
2018-08-04T06:55:48.810Z,29.70
2018-08-04T06:56:21.848Z,29.70
2018-08-04T06:56:54.914Z,29.70
2018-08-04T06:57:27.954Z,29.70
2018-08-04T06:58:01.076Z,29.80
2018-08-04T06:58:34.112Z,29.80
2018-08-04T06:59:07.157Z,29.90
2018-08-04T06:59:40.192Z,29.90
2018-08-04T07:00:13.488Z,29.90
2018-08-04T07:00:46.529Z,30.00
2018-08-04T07:01:19.560Z,30.00
2018-08-04T07:01:52.619Z,30.00
2018-08-04T07:02:25.676Z,30.10
2018-08-04T07:02:58.939Z,30.10
2018-08-04T07:03:31.960Z,30.10
2018-08-04T07:04:05.044Z,30.20
2018-08-04T07:04:38.118Z,30.20
2018-08-04T07:05:11.196Z,30.20
2018-08-04T07:05:44.231Z,30.30
2018-08-04T07:06:17.963Z,30.30
2018-08-04T07:06:51.763Z,30.40
2018-08-04T07:07:24.887Z,30.40